Hlavní strana
METAR-TAF:

METAR-TAF

Letiště :

Letiště Vitebsk

Vitebsk, Bělorusko

zeměpisná šířka: 55-10N, zeměpisná délka: 030-13E, výška: 176 m

Aktuální stav počasí

Zpráva byla vytvořena před 40 minutami, v 14:00 UTC
vítr z různých směrů 2 kt
Teplota 9°C
Vlhkost vzduchu 93%
Tlak 994 hPa
Viditelnost: 6000 m
Zataženo ve výšce 800 ft

METAR: UMII 241400Z VRB01MPS 6000 OVC008 09/08 Q0994 R05/290160 TEMPO 2000 DZ BKN005

Čas: 17:40 (14:40 UTC)

Předpověď počasí

Zpráva byla vytvořena před 33 minutami, v 14:07 UTC
Předpověď platná od 24 v 15 UTC do 24 v 24 UTC
vítr z různých směrů 4 kt
Viditelnost: 5000 m
Zataženo ve výšce 700 ft
kouřmo
Dočasný
od 24 v 15 UTC do 24 v 24 UTC
Západní vítr 14 kt s nárazy do 23 kt
Viditelnost: 1000 m
Oblačno až skoro zataženo ve výšce 300 ft
Oblačno až skoro zataženo ve výšce 1500 ft, Cumulonimbus.
dešťové přeháňky, kouřmo

TAF: UMII 241407Z 2415/2424 VRB02MPS 5000 BR OVC007 TEMPO 2415/2424 27007G12MPS 1000 SHRA BR BKN003 BKN015CB

Stav a předpovědi počasí z více než 4 000 letišť (zprávy METAR a TAF).

Červené a žluté tečky na mapě představují dostupné meteorologické stanice.

Když kurzor umístíte na tečku, zobrazí se název stanice.

Pak kliknutím zobrazíte stav a předpověď počasí.

Chcete-li změnit mapu, kliknutím na zelené tlačítko se znaménkem +mapu přiblížíte, kliknutím na zelené tlačítko se znaménkem – mapu oddálíte a kliknutím na zelené šipky přejdete na sousední mapy.


METAR-TAF: